Time;durP1;ratioP1;P1;durP2;ratioP2;P2;SDS_P1;SDS_P2;PMS_P1;PMS_P2;Temp;Humidity;BMP_temperature;BMP_pressure;BME280_temperature;BME280_humidity;BME280_pressure;Samples;Min_cycle;Max_cycle;Signal;HPM_P1;HPM_P2
2020/12/29 00:00:37;;;;;;;4.15;2.28;;;;;;;-0.15;100.00;93262.69;4906036;28;20053;-43
2020/12/29 00:03:04;;;;;;;3.92;2.40;;;;;;;-0.07;100.00;93272.22;4950650;28;20043;-45
2020/12/29 00:05:31;;;;;;;4.53;2.40;;;;;;;-0.13;100.00;93265.13;4927515;28;20130;-45
2020/12/29 00:07:59;;;;;;;4.05;2.15;;;;;;;-0.13;100.00;93257.34;4946306;28;20051;-47
2020/12/29 00:10:26;;;;;;;3.25;2.38;;;;;;;-0.13;100.00;93262.53;4915600;28;20054;-47
2020/12/29 00:12:53;;;;;;;3.45;2.00;;;;;;;-0.08;100.00;93265.44;4939841;28;20043;-45
2020/12/29 00:15:20;;;;;;;5.20;2.50;;;;;;;-0.10;100.00;93273.38;4912924;28;20122;-46
2020/12/29 00:17:47;;;;;;;4.78;2.38;;;;;;;-0.14;100.00;93273.84;4947597;28;20094;-44
2020/12/29 00:20:14;;;;;;;4.35;1.92;;;;;;;-0.07;100.00;93272.22;4911964;28;20056;-45
2020/12/29 00:22:41;;;;;;;4.47;2.20;;;;;;;-0.12;100.00;93271.91;4945404;28;20055;-44
2020/12/29 00:25:09;;;;;;;3.47;2.17;;;;;;;-0.14;100.00;93279.81;4945525;28;20098;-43
2020/12/29 00:27:36;;;;;;;4.05;2.28;;;;;;;-0.19;100.00;93282.09;4946964;28;20043;-43
2020/12/29 00:30:03;;;;;;;3.55;2.10;;;;;;;-0.27;100.00;93276.91;4946131;28;20039;-44
2020/12/29 00:32:30;;;;;;;2.95;1.92;;;;;;;-0.26;100.00;93279.31;4912511;28;20035;-46
2020/12/29 00:34:57;;;;;;;3.80;2.15;;;;;;;-0.26;100.00;93291.47;4947915;28;20051;-50
2020/12/29 00:37:24;;;;;;;3.45;2.20;;;;;;;-0.36;100.00;93296.75;4904354;28;20531;-45
2020/12/29 00:39:51;;;;;;;4.13;1.65;;;;;;;-0.31;100.00;93298.88;4951697;28;20062;-44
2020/12/29 00:42:19;;;;;;;2.67;1.70;;;;;;;-0.28;100.00;93298.56;4921363;28;20039;-47
2020/12/29 00:44:46;;;;;;;3.55;2.17;;;;;;;-0.41;100.00;93306.78;4949832;28;23402;-46
2020/12/29 00:47:13;;;;;;;3.00;1.98;;;;;;;-0.49;100.00;93310.13;4913254;28;20095;-44
2020/12/29 00:49:41;;;;;;;3.35;1.95;;;;;;;-0.47;100.00;93314.34;4963459;28;20046;-48
2020/12/29 00:52:08;;;;;;;3.78;1.80;;;;;;;-0.52;100.00;93319.97;4908626;28;20047;-44
2020/12/29 00:54:48;;;;;;;3.58;1.67;;;;;;;-0.56;100.00;93306.53;4949279;28;20522;-45
2020/12/29 00:57:28;;;;;;;3.45;2.05;;;;;;;-0.46;100.00;93313.38;4904121;28;20050;-47
2020/12/29 00:59:55;;;;;;;2.97;1.80;;;;;;;-0.55;100.00;93317.69;4949293;28;20142;-44
2020/12/29 01:02:22;;;;;;;3.95;2.15;;;;;;;-0.52;100.00;93325.16;4932465;28;20146;-43
2020/12/29 01:04:48;;;;;;;3.38;1.83;;;;;;;-0.45;100.00;93333.91;4950536;28;20058;-47
2020/12/29 01:07:16;;;;;;;4.90;2.13;;;;;;;-0.39;100.00;93342.84;4888499;28;20058;-43
2020/12/29 01:09:43;;;;;;;3.40;2.05;;;;;;;-0.34;100.00;93346.59;4946691;28;20212;-48
2020/12/29 01:12:10;;;;;;;3.25;1.70;;;;;;;-0.34;100.00;93351.78;4914463;28;20502;-45
2020/12/29 01:14:42;;;;;;;2.95;1.52;;;;;;;-0.70;100.00;93355.47;4949556;28;20047;-44
2020/12/29 01:17:16;;;;;;;2.92;1.75;;;;;;;-0.67;100.00;93363.75;4922770;28;20043;-46
2020/12/29 01:19:43;;;;;;;2.75;1.60;;;;;;;-0.56;100.00;93368.63;4950251;28;20051;-46
2020/12/29 01:22:10;;;;;;;3.22;2.00;;;;;;;-0.56;100.00;93366.06;4946287;28;20457;-48
2020/12/29 01:24:38;;;;;;;3.22;1.90;;;;;;;-0.44;100.00;93369.19;4907193;28;20067;-47
2020/12/29 01:27:05;;;;;;;2.42;1.85;;;;;;;-0.38;100.00;93371.19;4950680;28;20066;-43
2020/12/29 01:29:33;;;;;;;2.88;1.90;;;;;;;-0.26;100.00;93364.75;4912071;28;20035;-44
2020/12/29 01:32:01;;;;;;;2.53;1.80;;;;;;;-0.17;100.00;93359.59;4948323;28;20051;-43
2020/12/29 01:34:28;;;;;;;4.28;2.03;;;;;;;-0.12;100.00;93362.53;4912245;28;20042;-46
2020/12/29 01:36:55;;;;;;;2.50;1.80;;;;;;;-0.08;100.00;93369.03;4940584;28;20086;-44
2020/12/29 01:39:22;;;;;;;5.75;2.03;;;;;;;-0.02;100.00;93364.03;4916331;28;20043;-45
2020/12/29 01:41:49;;;;;;;2.63;1.80;;;;;;;0.07;100.00;93364.88;4964128;28;20051;-47
2020/12/29 01:44:19;;;;;;;2.55;1.58;;;;;;;0.10;100.00;93374.91;4908970;28;20044;-47
2020/12/29 01:46:49;;;;;;;3.13;1.70;;;;;;;-0.02;100.00;93373.59;4947619;28;21266;-47
2020/12/29 01:49:18;;;;;;;3.47;1.85;;;;;;;0.02;100.00;93366.31;4923418;28;20043;-43
2020/12/29 01:51:45;;;;;;;3.70;1.73;;;;;;;-0.10;100.00;93365.78;4950196;28;20042;-48
2020/12/29 01:54:12;;;;;;;2.38;1.42;;;;;;;0.01;100.00;93359.50;4918255;28;20123;-44
2020/12/29 01:56:40;;;;;;;3.10;1.38;;;;;;;0.03;100.00;93358.38;4960730;28;20502;-45
2020/12/29 01:59:11;;;;;;;4.22;1.80;;;;;;;0.00;100.00;93358.72;4911619;28;20887;-44
2020/12/29 02:01:38;;;;;;;;;;;;;;;0.01;100.00;93349.97;4946624;28;20047;-43
2020/12/29 02:04:06;;;;;;;3.50;1.60;;;;;;;-0.01;100.00;93360.47;4915563;28;20257;-45
2020/12/29 02:06:34;;;;;;;2.95;1.42;;;;;;;0.05;100.00;93358.22;4948384;28;20074;-44
2020/12/29 02:09:02;;;;;;;2.97;1.80;;;;;;;0.00;100.00;93343.16;4951192;28;20069;-44
2020/12/29 02:11:29;;;;;;;2.97;1.52;;;;;;;-0.07;100.00;93337.81;4918520;28;20126;-42
2020/12/29 02:13:56;;;;;;;2.55;1.60;;;;;;;-0.07;100.00;93343.00;4946904;28;20497;-45
2020/12/29 02:16:24;;;;;;;2.47;1.52;;;;;;;-0.06;100.00;93364.50;4921756;28;20529;-45
2020/12/29 02:18:51;;;;;;;4.03;2.00;;;;;;;-0.20;100.00;93375.47;4947924;28;20039;-44
2020/12/29 02:21:18;;;;;;;2.53;1.60;;;;;;;-0.19;100.00;93379.66;4907399;28;20094;-44
2020/12/29 02:23:47;;;;;;;1.80;1.33;;;;;;;-0.44;100.00;93386.50;4952645;28;20050;-46
2020/12/29 02:26:30;;;;;;;2.92;1.90;;;;;;;-0.34;100.00;93382.84;4910349;28;20045;-45
2020/12/29 02:28:59;;;;;;;2.22;1.60;;;;;;;-0.25;100.00;93396.63;4945603;28;20042;-44
2020/12/29 02:31:26;;;;;;;2.38;1.70;;;;;;;-0.31;100.00;93390.31;4919187;28;20501;-44
2020/12/29 02:33:53;;;;;;;2.58;1.80;;;;;;;-0.35;100.00;93385.56;4965909;28;20364;-45
2020/12/29 02:36:20;;;;;;;3.35;2.00;;;;;;;-0.44;100.00;93408.03;4905896;28;20075;-45
2020/12/29 02:38:48;;;;;;;2.33;1.42;;;;;;;-0.52;100.00;93421.75;4948485;28;20051;-45
2020/12/29 02:41:17;;;;;;;2.38;1.50;;;;;;;-0.65;100.00;93425.69;4918641;28;20062;-44
2020/12/29 02:43:44;;;;;;;3.28;1.70;;;;;;;-0.67;100.00;93427.59;4946733;28;20047;-44
2020/12/29 02:46:13;;;;;;;3.30;1.60;;;;;;;-0.60;100.00;93423.44;4899658;29;20587;-44
2020/12/29 02:48:40;;;;;;;3.53;1.80;;;;;;;-0.69;100.00;93432.09;4950337;28;20486;-43
2020/12/29 02:51:07;;;;;;;2.67;1.63;;;;;;;-0.63;100.00;93439.28;4901211;28;20034;-47
2020/12/29 02:53:35;;;;;;;3.08;1.77;;;;;;;-0.65;100.00;93441.22;4951634;28;20039;-45
2020/12/29 02:56:04;;;;;;;2.10;1.35;;;;;;;-0.56;100.00;93442.88;4913546;28;20039;-51
2020/12/29 02:58:31;;;;;;;3.20;1.42;;;;;;;-0.53;100.00;93451.16;4938909;28;20484;-45
2020/12/29 03:00:59;;;;;;;2.47;1.50;;;;;;;-0.40;100.00;93452.53;4940493;28;20046;-44
2020/12/29 03:03:27;;;;;;;3.13;1.52;;;;;;;-0.16;100.00;93464.81;4911908;28;20047;-43
2020/12/29 03:05:54;;;;;;;2.42;1.58;;;;;;;-0.03;100.00;93466.00;4966076;28;20083;-46
2020/12/29 03:08:21;;;;;;;2.40;1.52;;;;;;;0.01;100.00;93466.50;4901812;29;20044;-46
2020/12/29 03:10:48;;;;;;;2.28;1.48;;;;;;;0.11;100.00;93454.25;4943496;28;20533;-49
2020/12/29 03:13:16;;;;;;;3.17;1.75;;;;;;;0.14;100.00;93458.31;4920029;28;20165;-43
2020/12/29 03:15:44;;;;;;;3.22;1.70;;;;;;;0.12;100.00;93462.84;4945623;28;20114;-42
2020/12/29 03:18:11;;;;;;;3.95;1.83;;;;;;;-0.19;100.00;93457.34;4908354;28;20134;-47
2020/12/29 03:20:38;;;;;;;3.35;1.83;;;;;;;-0.33;100.00;93464.69;4948802;28;20130;-45
2020/12/29 03:23:05;;;;;;;2.78;1.70;;;;;;;-0.34;100.00;93449.34;4928984;28;20050;-44
2020/12/29 03:25:32;;;;;;;2.92;1.60;;;;;;;-0.38;100.00;93448.00;4937923;28;20059;-45
2020/12/29 03:27:59;;;;;;;3.25;1.75;;;;;;;-0.38;100.00;93451.41;4930836;28;20047;-46
2020/12/29 03:30:27;;;;;;;2.33;1.60;;;;;;;-0.31;100.00;93455.03;4947342;28;20509;-50
2020/12/29 03:32:54;;;;;;;2.03;1.40;;;;;;;-0.29;100.00;93460.84;4899255;28;20051;-48
2020/12/29 03:35:22;;;;;;;2.90;1.50;;;;;;;-0.37;100.00;93465.97;4941573;28;20046;-47
2020/12/29 03:37:49;;;;;;;2.15;1.30;;;;;;;-0.38;100.00;93459.19;4917210;28;21538;-45
2020/12/29 03:40:16;;;;;;;3.13;1.60;;;;;;;-0.49;100.00;93460.22;4946815;28;20134;-44
2020/12/29 03:42:43;;;;;;;2.28;1.30;;;;;;;-0.49;100.00;93457.63;4945302;28;20254;-43
2020/12/29 03:45:10;;;;;;;4.25;1.30;;;;;;;-0.44;100.00;93467.56;4917305;28;20035;-42
2020/12/29 03:47:38;;;;;;;2.78;1.35;;;;;;;-0.37;100.00;93470.34;4943932;28;20043;-42
2020/12/29 03:50:05;;;;;;;2.33;1.40;;;;;;;-0.38;100.00;93477.31;4899935;28;20528;-44
2020/12/29 03:52:33;;;;;;;2.38;1.40;;;;;;;-0.49;100.00;93480.13;4946991;28;20134;-44
2020/12/29 03:55:00;;;;;;;1.92;1.17;;;;;;;-0.60;100.00;93490.72;4908567;28;20379;-44
2020/12/29 03:57:27;;;;;;;1.33;1.10;;;;;;;-0.63;100.00;93501.38;4943649;28;20386;-47
2020/12/29 03:59:54;;;;;;;2.22;1.20;;;;;;;-0.84;100.00;93501.69;4918504;28;20047;-46
2020/12/29 04:02:21;;;;;;;3.17;1.27;;;;;;;-0.96;100.00;93501.91;4943852;28;20043;-44
2020/12/29 04:04:49;;;;;;;2.58;1.20;;;;;;;-1.01;100.00;93503.31;4910186;28;20110;-43
2020/12/29 04:07:17;;;;;;;3.17;1.20;;;;;;;-1.06;100.00;93506.34;4939569;28;20047;-44
2020/12/29 04:09:44;;;;;;;2.47;1.13;;;;;;;-0.92;100.00;93522.31;4908322;28;20047;-44
2020/12/29 04:12:11;;;;;;;1.60;1.23;;;;;;;-0.99;100.00;93542.78;4945636;28;20046;-43
2020/12/29 04:14:37;;;;;;;2.40;1.45;;;;;;;-0.93;100.00;93539.56;4904979;28;20043;-44
2020/12/29 04:17:05;;;;;;;3.17;1.40;;;;;;;-0.92;100.00;93538.63;4926246;29;20051;-45
2020/12/29 04:19:32;;;;;;;2.17;1.40;;;;;;;-0.86;100.00;93527.72;4912023;28;20457;-44
2020/12/29 04:22:00;;;;;;;2.53;1.45;;;;;;;-0.78;100.00;93514.84;4943883;28;20766;-48
2020/12/29 04:24:27;;;;;;;2.15;1.40;;;;;;;-0.79;100.00;93500.28;4929216;28;20094;-52
2020/12/29 04:26:54;;;;;;;1.75;1.00;;;;;;;-0.62;100.00;93500.38;4955519;28;20057;-43
2020/12/29 04:29:21;;;;;;;2.30;1.40;;;;;;;-0.56;100.00;93494.63;4945308;28;20118;-47
2020/12/29 04:31:47;;;;;;;2.55;1.10;;;;;;;-0.41;100.00;93510.41;4903274;28;20051;-46
2020/12/29 04:34:15;;;;;;;1.60;1.08;;;;;;;-0.36;100.00;93514.19;4946760;28;20047;-44
2020/12/29 04:36:42;;;;;;;2.03;1.10;;;;;;;-0.39;100.00;93519.66;4903343;28;20055;-51
2020/12/29 04:39:10;;;;;;;1.67;1.30;;;;;;;-0.34;100.00;93525.22;4949615;28;20055;-49
2020/12/29 04:41:37;;;;;;;2.20;1.17;;;;;;;-0.39;100.00;93527.44;4911306;28;20039;-46
2020/12/29 04:44:05;;;;;;;3.75;1.33;;;;;;;-0.51;100.00;93542.38;4943956;28;20054;-43
2020/12/29 04:46:33;;;;;;;4.00;1.10;;;;;;;-0.53;100.00;93546.09;4917980;28;20090;-45
2020/12/29 04:49:00;;;;;;;1.65;0.98;;;;;;;-0.53;100.00;93556.44;4946280;28;20131;-46
2020/12/29 04:51:29;;;;;;;2.35;1.00;;;;;;;-0.51;100.00;93567.47;4908164;28;20039;-51
2020/12/29 04:53:57;;;;;;;1.63;1.10;;;;;;;-0.53;100.00;93556.44;4945719;28;20580;-47
2020/12/29 04:56:30;;;;;;;1.10;0.90;;;;;;;-0.67;100.00;93562.94;4907057;28;20510;-45
2020/12/29 04:58:58;;;;;;;1.05;0.95;;;;;;;-0.68;100.00;93563.91;4945883;28;20050;-45
2020/12/29 05:01:29;;;;;;;1.20;1.00;;;;;;;-0.54;100.00;93578.91;4910121;28;20423;-43
2020/12/29 05:04:00;;;;;;;1.45;0.88;;;;;;;-0.43;100.00;93583.03;4962605;28;20565;-44
2020/12/29 05:06:27;;;;;;;2.25;0.90;;;;;;;-0.40;100.00;93585.34;4914559;28;20043;-45
2020/12/29 05:08:54;;;;;;;2.55;0.98;;;;;;;-0.35;100.00;93572.75;4945055;28;20155;-45
2020/12/29 05:11:23;;;;;;;2.25;0.90;;;;;;;-0.39;100.00;93574.00;4914679;28;20055;-48
2020/12/29 05:13:52;;;;;;;1.33;0.80;;;;;;;-0.26;100.00;93581.41;4945324;28;20090;-44
2020/12/29 05:16:19;;;;;;;1.30;0.90;;;;;;;-0.17;100.00;93603.81;4943399;28;20040;-43
2020/12/29 05:18:46;;;;;;;1.00;0.80;;;;;;;-0.09;100.00;93616.00;4901483;28;20055;-43
2020/12/29 05:21:14;;;;;;;0.82;0.73;;;;;;;0.00;100.00;93612.53;4948632;28;20343;-47
2020/12/29 05:23:41;;;;;;;2.13;1.08;;;;;;;0.14;100.00;93600.81;4927187;28;20047;-45
2020/12/29 05:26:08;;;;;;;1.35;0.80;;;;;;;0.25;100.00;93600.53;4945631;28;20074;-46
2020/12/29 05:28:37;;;;;;;2.35;0.70;;;;;;;0.26;100.00;93606.53;4900509;28;20051;-44
2020/12/29 05:31:05;;;;;;;1.05;0.70;;;;;;;0.18;100.00;93613.28;4950280;28;20804;-44
2020/12/29 05:33:33;;;;;;;0.68;0.65;;;;;;;0.29;100.00;93616.59;4915742;28;20533;-47
2020/12/29 05:36:00;;;;;;;0.77;0.60;;;;;;;0.38;100.00;93616.50;4946884;28;20407;-43
2020/12/29 05:38:28;;;;;;;1.38;0.50;;;;;;;0.42;100.00;93627.38;4916207;28;20138;-43
2020/12/29 05:40:55;;;;;;;2.00;0.65;;;;;;;0.49;100.00;93617.22;4944959;28;20117;-43
2020/12/29 05:43:32;;;;;;;1.42;0.80;;;;;;;0.56;100.00;93632.00;4918203;28;20472;-42
2020/12/29 05:46:00;;;;;;;1.73;0.60;;;;;;;0.55;100.00;93634.72;4948473;28;20060;-50
2020/12/29 05:48:28;;;;;;;0.80;0.57;;;;;;;0.58;100.00;93631.81;4912252;28;20047;-43
2020/12/29 05:50:55;;;;;;;1.00;0.60;;;;;;;0.68;100.00;93627.34;4948202;28;20146;-45
2020/12/29 05:53:23;;;;;;;1.00;0.77;;;;;;;0.68;100.00;93630.75;4915862;28;20542;-46
2020/12/29 05:55:50;;;;;;;2.30;0.70;;;;;;;0.70;100.00;93638.38;4942184;28;20039;-42
2020/12/29 05:58:18;;;;;;;0.70;0.60;;;;;;;0.58;100.00;93637.81;4912316;28;20463;-43
2020/12/29 06:00:46;;;;;;;1.17;0.60;;;;;;;0.55;100.00;93634.72;4949561;28;20050;-45
2020/12/29 06:03:13;;;;;;;0.95;0.60;;;;;;;0.55;100.00;93632.97;4952491;28;20044;-45
2020/12/29 06:05:41;;;;;;;1.02;0.65;;;;;;;0.35;100.00;93642.72;4905197;28;20043;-44
2020/12/29 06:08:08;;;;;;;1.40;0.80;;;;;;;0.37;100.00;93648.53;4951213;28;20102;-42
2020/12/29 06:10:37;;;;;;;2.63;1.02;;;;;;;0.36;100.00;93662.47;4911439;28;20043;-43
2020/12/29 06:13:06;;;;;;;1.45;0.77;;;;;;;0.48;100.00;93665.63;4943974;29;20128;-45
2020/12/29 06:15:36;;;;;;;4.13;1.00;;;;;;;0.49;100.00;93658.69;4919937;28;20051;-44
2020/12/29 06:18:04;;;;;;;1.73;0.70;;;;;;;0.46;100.00;93664.97;4951295;29;20536;-45
2020/12/29 06:20:36;;;;;;;3.33;1.70;;;;;;;0.39;100.00;93664.78;4913530;28;20042;-42
2020/12/29 06:23:06;;;;;;;6.53;2.22;;;;;;;0.34;100.00;93669.56;4948496;28;20080;-45
2020/12/29 06:25:35;;;;;;;2.88;1.48;;;;;;;0.25;100.00;93680.06;4910389;28;20039;-44
2020/12/29 06:28:04;;;;;;;2.35;1.35;;;;;;;0.22;100.00;93670.81;4947353;28;20051;-47
2020/12/29 06:30:32;;;;;;;2.90;1.20;;;;;;;0.28;100.00;93665.03;4913310;28;20402;-45
2020/12/29 06:33:00;;;;;;;1.85;1.10;;;;;;;0.17;100.00;93685.97;4952226;28;20372;-44
2020/12/29 06:35:27;;;;;;;1.02;0.80;;;;;;;-0.04;100.00;93694.06;4911069;28;20047;-48
2020/12/29 06:38:00;;;;;;;1.42;0.70;;;;;;;0.09;100.00;93702.25;4946366;28;20043;-51
2020/12/29 06:40:29;;;;;;;0.90;0.70;;;;;;;-0.13;100.00;93700.94;4910387;28;20047;-46
2020/12/29 06:42:57;;;;;;;0.80;0.60;;;;;;;-0.08;100.00;93716.03;4946280;28;20059;-46
2020/12/29 06:45:24;;;;;;;3.58;0.80;;;;;;;-0.21;100.00;93715.59;4902224;28;20043;-43
2020/12/29 06:47:52;;;;;;;2.50;1.25;;;;;;;-0.16;100.00;93724.56;4951762;28;20054;-45
2020/12/29 06:50:24;;;;;;;1.63;0.90;;;;;;;-0.03;100.00;93721.59;4930597;28;20575;-44
2020/12/29 06:53:00;;;;;;;2.38;1.08;;;;;;;-0.19;100.00;93739.56;4940312;28;20048;-43
2020/12/29 06:55:35;;;;;;;1.90;0.90;;;;;;;-0.29;100.00;93735.25;4922574;28;20127;-48
2020/12/29 06:58:04;;;;;;;1.65;1.13;;;;;;;-0.37;100.00;93748.13;4929968;29;20050;-45
2020/12/29 07:00:31;;;;;;;2.40;0.77;;;;;;;-0.45;100.00;93747.22;4917829;28;20044;-46
2020/12/29 07:02:58;;;;;;;2.80;1.15;;;;;;;-0.57;100.00;93749.19;4940690;28;20458;-47
2020/12/29 07:05:27;;;;;;;1.45;0.82;;;;;;;-0.43;100.00;93756.47;4948780;28;20063;-44
2020/12/29 07:07:57;;;;;;;1.77;0.63;;;;;;;-0.40;100.00;93761.34;4914176;28;20051;-46
2020/12/29 07:10:28;;;;;;;1.20;1.00;;;;;;;-0.66;100.00;93765.56;4945514;28;20050;-44
2020/12/29 07:13:04;;;;;;;2.85;1.20;;;;;;;-0.58;100.00;93773.44;4916011;28;20070;-47
2020/12/29 07:15:44;;;;;;;2.53;1.10;;;;;;;-0.46;100.00;93776.66;4944520;28;20047;-44
2020/12/29 07:18:11;;;;;;;1.53;1.17;;;;;;;-0.33;100.00;93775.34;4908276;28;20469;-45
2020/12/29 07:20:40;;;;;;;1.23;0.80;;;;;;;-0.23;100.00;93782.25;4945903;28;20283;-46
2020/12/29 07:23:09;;;;;;;1.52;1.00;;;;;;;-0.36;100.00;93791.16;4904562;28;20035;-45
2020/12/29 07:25:36;;;;;;;54.88;23.38;;;;;;;-0.40;100.00;93795.00;4950160;28;20035;-47
2020/12/29 07:28:07;;;;;;;8.18;3.92;;;;;;;-0.41;100.00;93816.69;4916823;28;20039;-45
2020/12/29 07:30:35;;;;;;;124.68;45.97;;;;;;;-0.26;100.00;93810.06;4945248;28;23241;-43
2020/12/29 07:33:05;;;;;;;194.45;67.05;;;;;;;-0.05;98.18;93812.38;4907821;28;20079;-43
2020/12/29 07:35:33;;;;;;;254.20;82.05;;;;;;;0.31;95.09;93812.44;4940089;28;20066;-43
2020/12/29 07:38:05;;;;;;;37.60;15.25;;;;;;;0.53;93.83;93818.94;4903586;28;20130;-43
2020/12/29 07:40:32;;;;;;;6.78;3.63;;;;;;;0.58;92.85;93821.06;4956191;28;20070;-43
2020/12/29 07:43:19;;;;;;;5.30;3.78;;;;;;;0.47;92.79;93812.56;4913144;28;20055;-42
2020/12/29 07:45:46;;;;;;;4.20;2.40;;;;;;;0.51;93.22;93818.25;4946539;29;20057;-43
2020/12/29 07:48:13;;;;;;;1.67;1.30;;;;;;;0.48;92.46;93826.34;4899762;29;20051;-43
2020/12/29 07:50:41;;;;;;;1.80;1.02;;;;;;;0.54;91.66;93817.16;4939766;29;20394;-43
2020/12/29 07:53:08;;;;;;;3.03;1.70;;;;;;;0.51;91.83;93826.03;4906936;28;20043;-43
2020/12/29 07:55:36;;;;;;;2.42;1.30;;;;;;;0.60;90.70;93827.75;4946436;28;20043;-44
2020/12/29 07:58:04;;;;;;;1.80;1.20;;;;;;;0.69;89.68;93828.66;4905481;28;22597;-48
2020/12/29 08:00:32;;;;;;;2.45;1.30;;;;;;;0.91;89.10;93827.34;4947356;28;20094;-44
2020/12/29 08:02:59;;;;;;;3.05;1.50;;;;;;;1.10;86.48;93826.31;4925227;28;20145;-45
2020/12/29 08:05:27;;;;;;;2.17;1.17;;;;;;;1.24;85.51;93835.34;4938887;28;20503;-47
2020/12/29 08:08:00;;;;;;;4.43;1.08;;;;;;;1.32;84.84;93833.63;4947914;28;20413;-45
2020/12/29 08:10:28;;;;;;;1.90;0.90;;;;;;;1.41;84.46;93837.91;4911833;28;20044;-43
2020/12/29 08:12:55;;;;;;;1.80;0.93;;;;;;;1.59;82.89;93839.63;4942266;29;20438;-46
2020/12/29 08:15:27;;;;;;;1.00;0.80;;;;;;;1.87;80.93;93848.03;4907563;28;20043;-45
2020/12/29 08:18:08;;;;;;;1.77;0.80;;;;;;;2.17;79.24;93858.84;4950691;28;20051;-45
2020/12/29 08:20:43;;;;;;;1.23;0.70;;;;;;;2.64;77.11;93866.91;4913565;28;20570;-45
2020/12/29 08:23:10;;;;;;;1.20;0.77;;;;;;;2.84;75.40;93868.25;4946029;28;20138;-45
2020/12/29 08:25:37;;;;;;;1.90;0.70;;;;;;;3.14;72.61;93867.78;4916570;28;20176;-44
2020/12/29 08:28:04;;;;;;;1.40;0.70;;;;;;;3.28;72.28;93880.94;4944326;28;20133;-43
2020/12/29 08:30:32;;;;;;;1.08;0.68;;;;;;;3.23;72.96;93888.41;4904711;28;20059;-44
2020/12/29 08:33:02;;;;;;;1.33;0.60;;;;;;;3.60;71.54;93889.69;4951107;29;20426;-45
2020/12/29 08:35:33;;;;;;;0.75;0.60;;;;;;;3.77;70.40;93901.72;4906669;28;20043;-44
2020/12/29 08:38:09;;;;;;;1.40;0.70;;;;;;;3.95;68.30;93898.09;4934384;29;20095;-43
2020/12/29 08:40:42;;;;;;;1.63;0.75;;;;;;;4.24;66.93;93905.34;4915364;28;20043;-43
2020/12/29 08:43:09;;;;;;;1.35;0.80;;;;;;;4.07;67.87;93917.63;4944675;28;20102;-43
2020/12/29 08:45:36;;;;;;;1.42;0.70;;;;;;;4.25;67.35;93915.59;4902151;28;20134;-44
2020/12/29 08:48:03;;;;;;;0.80;0.55;;;;;;;4.38;65.48;93920.28;4948376;29;20095;-45
2020/12/29 08:50:33;;;;;;;1.17;0.60;;;;;;;4.57;65.36;93906.00;4908489;28;20062;-44
2020/12/29 08:53:05;;;;;;;1.33;0.63;;;;;;;5.00;64.08;93916.84;4942995;28;20103;-43
2020/12/29 08:55:33;;;;;;;1.45;0.70;;;;;;;4.50;66.36;93928.53;4913081;28;20114;-47
2020/12/29 08:58:01;;;;;;;2.58;0.80;;;;;;;4.46;66.25;93933.28;4947037;28;20054;-46
2020/12/29 09:00:29;;;;;;;1.75;0.73;;;;;;;4.44;67.50;93943.09;4914966;28;20478;-44
2020/12/29 09:02:57;;;;;;;1.98;0.73;;;;;;;4.17;68.20;93940.91;4951801;28;20051;-43
2020/12/29 09:05:26;;;;;;;1.30;0.60;;;;;;;4.23;68.24;93948.88;4919150;28;20055;-44
2020/12/29 09:07:53;;;;;;;2.40;0.98;;;;;;;4.44;67.74;93956.13;4946159;28;20122;-44
2020/12/29 09:10:21;;;;;;;1.35;0.80;;;;;;;4.59;66.37;93968.47;4941822;29;20047;-44
2020/12/29 09:12:48;;;;;;;1.40;0.80;;;;;;;4.62;66.06;93963.72;4919088;28;20102;-44
2020/12/29 09:15:25;;;;;;;1.25;0.60;;;;;;;4.67;65.58;93965.81;4950928;28;20098;-46
2020/12/29 09:17:57;;;;;;;1.88;0.70;;;;;;;4.98;63.84;93963.22;4909609;28;20463;-47
2020/12/29 09:20:28;;;;;;;1.05;0.70;;;;;;;5.25;63.72;93980.19;4949120;28;20047;-46
2020/12/29 09:23:02;;;;;;;1.65;0.80;;;;;;;5.52;61.96;93975.44;4908337;28;20035;-47
2020/12/29 09:25:34;;;;;;;2.45;0.60;;;;;;;5.79;60.72;93959.22;4945285;28;20131;-43
2020/12/29 09:28:23;;;;;;;1.08;0.60;;;;;;;5.88;61.13;93970.41;4908318;28;20039;-42
2020/12/29 09:30:58;;;;;;;2.83;0.60;;;;;;;6.36;59.38;93984.84;4947862;28;20047;-47
2020/12/29 09:33:27;;;;;;;2.72;0.60;;;;;;;6.29;58.82;93983.94;4915778;28;20053;-44
2020/12/29 09:35:54;;;;;;;1.65;0.57;;;;;;;6.14;59.57;93991.78;4942684;29;20098;-43
2020/12/29 09:38:22;;;;;;;2.13;0.63;;;;;;;6.14;60.52;93999.63;4917657;28;20059;-50
2020/12/29 09:40:58;;;;;;;1.85;0.55;;;;;;;6.19;61.20;93993.84;4947088;28;20043;-45
2020/12/29 09:43:26;;;;;;;3.97;1.23;;;;;;;6.04;61.24;94014.75;4901679;28;20514;-44
2020/12/29 09:45:53;;;;;;;1.83;0.70;;;;;;;6.00;60.96;94004.84;4951051;28;20055;-43
2020/12/29 09:48:20;;;;;;;1.50;0.55;;;;;;;5.90;60.95;94010.28;4913996;28;20070;-46
2020/12/29 09:50:47;;;;;;;1.55;0.60;;;;;;;5.73;62.92;94022.66;4941307;28;20141;-46
2020/12/29 09:53:14;;;;;;;3.55;1.30;;;;;;;5.76;61.49;94022.31;4919309;28;20054;-42
2020/12/29 09:55:42;;;;;;;1.08;0.45;;;;;;;6.02;62.32;94015.91;4948265;28;20042;-43
2020/12/29 09:58:09;;;;;;;0.63;0.40;;;;;;;5.81;61.72;94024.41;4905695;28;20134;-48
2020/12/29 10:00:36;;;;;;;1.25;0.80;;;;;;;5.93;61.65;94023.84;4948524;28;20055;-50
2020/12/29 10:03:05;;;;;;;2.17;0.55;;;;;;;5.97;61.45;94032.16;4912085;28;20055;-45
2020/12/29 10:05:33;;;;;;;4.95;0.77;;;;;;;5.89;62.34;94030.38;4942546;28;20066;-44
2020/12/29 10:07:59;;;;;;;1.75;0.60;;;;;;;5.78;63.66;94038.66;4909589;28;20521;-46
2020/12/29 10:10:26;;;;;;;2.08;0.50;;;;;;;5.66;64.10;94042.66;4950575;28;20035;-48
2020/12/29 10:12:56;;;;;;;1.40;0.60;;;;;;;5.45;63.92;94043.28;4945880;28;20514;-43
2020/12/29 10:15:23;;;;;;;2.08;0.60;;;;;;;5.68;63.81;94043.28;4934223;28;20102;-45
2020/12/29 10:17:50;;;;;;;0.95;0.40;;;;;;;5.87;63.17;94036.78;4952650;28;20051;-44
2020/12/29 10:20:17;;;;;;;0.85;0.45;;;;;;;5.79;63.65;94037.66;4909194;28;20062;-46
2020/12/29 10:22:44;;;;;;;1.20;0.50;;;;;;;5.86;61.29;94038.56;4937511;28;20048;-44
2020/12/29 10:25:14;;;;;;;3.80;0.77;;;;;;;5.84;61.52;94044.97;4920921;28;20054;-43
2020/12/29 10:27:43;;;;;;;1.00;0.60;;;;;;;5.76;61.84;94051.06;4948513;28;20123;-48
2020/12/29 10:30:10;;;;;;;0.73;0.47;;;;;;;5.83;63.53;94052.00;4914464;28;20052;-44
2020/12/29 10:32:38;;;;;;;1.98;0.50;;;;;;;5.63;63.54;94050.84;4946503;29;20047;-46
2020/12/29 10:35:05;;;;;;;1.58;0.70;;;;;;;5.71;63.74;94054.22;4908490;28;20406;-47
2020/12/29 10:37:32;;;;;;;3.75;1.00;;;;;;;6.04;63.24;94046.16;4935530;28;20050;-47
2020/12/29 10:39:59;;;;;;;1.00;0.40;;;;;;;6.03;63.27;94041.09;4914363;28;20074;-46
2020/12/29 10:42:26;;;;;;;0.75;0.40;;;;;;;5.97;61.68;94050.44;4950564;28;20070;-43
2020/12/29 10:44:53;;;;;;;2.22;0.60;;;;;;;6.05;61.35;94047.75;4917434;28;20075;-44
2020/12/29 10:47:21;;;;;;;3.22;0.82;;;;;;;6.27;62.30;94042.69;4945275;29;20035;-46
2020/12/29 10:49:49;;;;;;;1.00;0.50;;;;;;;6.35;60.59;94055.69;4907526;28;20071;-47
2020/12/29 10:52:16;;;;;;;2.92;0.63;;;;;;;6.23;63.41;94047.47;4946982;28;20045;-45
2020/12/29 10:54:43;;;;;;;2.05;0.60;;;;;;;6.11;62.23;94046.25;4899408;28;20488;-46
2020/12/29 10:57:10;;;;;;;2.20;0.45;;;;;;;6.31;60.47;94052.63;4950681;29;20039;-46
2020/12/29 10:59:37;;;;;;;1.70;0.65;;;;;;;6.31;62.28;94059.66;4947495;28;20050;-46
2020/12/29 11:02:05;;;;;;;2.90;0.90;;;;;;;6.54;61.69;94057.00;4911499;28;20062;-45
2020/12/29 11:04:33;;;;;;;2.33;0.70;;;;;;;6.49;62.39;94061.94;4945428;28;20047;-48
2020/12/29 11:07:00;;;;;;;1.48;0.30;;;;;;;6.72;61.44;94043.53;4918922;28;20039;-47
2020/12/29 11:09:28;;;;;;;2.85;0.80;;;;;;;7.07;61.21;94063.75;4946170;28;20043;-45
2020/12/29 11:11:55;;;;;;;0.22;0.20;;;;;;;7.10;60.97;94070.44;4913520;28;20450;-44
2020/12/29 11:14:22;;;;;;;2.13;0.80;;;;;;;7.07;61.30;94058.53;4948390;28;20117;-49
2020/12/29 11:16:49;;;;;;;4.88;0.50;;;;;;;7.05;61.81;94064.94;4912141;28;20521;-44
2020/12/29 11:19:16;;;;;;;2.03;0.55;;;;;;;7.01;59.34;94054.00;4949027;28;20067;-45
2020/12/29 11:21:46;;;;;;;3.50;0.80;;;;;;;6.97;61.19;94072.91;4917160;28;20054;-47
2020/12/29 11:24:14;;;;;;;2.92;0.75;;;;;;;6.84;61.04;94066.47;4945494;29;20533;-46
2020/12/29 11:26:41;;;;;;;1.75;0.60;;;;;;;6.44;62.07;94080.81;4907936;28;20032;-45
2020/12/29 11:29:08;;;;;;;1.23;0.38;;;;;;;6.34;62.22;94083.66;4947850;28;20109;-44
2020/12/29 11:31:35;;;;;;;1.10;0.40;;;;;;;6.31;62.51;94085.81;4910988;28;20067;-47
2020/12/29 11:34:02;;;;;;;1.30;0.50;;;;;;;6.16;62.89;94098.88;4947857;28;20090;-44
2020/12/29 11:36:29;;;;;;;2.90;0.70;;;;;;;6.13;62.54;94105.28;4909730;28;20458;-48